Time;durP1;ratioP1;P1;durP2;ratioP2;P2;SDS_P1;SDS_P2;PMS_P1;PMS_P2;Temp;Humidity;BMP_temperature;BMP_pressure;BME280_temperature;BME280_humidity;BME280_pressure;Samples;Min_cycle;Max_cycle;Signal;HPM_P1;HPM_P2
2022/09/29 00:01:44;;;;;;;23.90;13.63;;;6.90;99.90;;;;;;5034055;28;20217;-58
2022/09/29 00:04:11;;;;;;;24.97;15.20;;;6.90;99.90;;;;;;5035506;28;20237;-57
2022/09/29 00:06:39;;;;;;;24.13;14.53;;;6.90;99.90;;;;;;5034278;28;20666;-58
2022/09/29 00:09:06;;;;;;;24.20;13.80;;;6.90;99.90;;;;;;5032436;28;20224;-58
2022/09/29 00:11:33;;;;;;;22.70;14.40;;;6.90;99.90;;;;;;5032296;28;20210;-58
2022/09/29 00:13:59;;;;;;;24.83;14.30;;;6.90;99.90;;;;;;5032296;28;20211;-58
2022/09/29 00:16:26;;;;;;;23.37;14.80;;;6.90;99.90;;;;;;5031836;28;20215;-57
2022/09/29 00:18:54;;;;;;;27.20;14.60;;;6.90;99.90;;;;;;5032577;28;20214;-58
2022/09/29 00:21:21;;;;;;;24.40;14.43;;;6.90;99.90;;;;;;5032308;28;20586;-58
2022/09/29 00:23:50;;;;;;;26.13;15.83;;;6.90;99.90;;;;;;5032287;28;20210;-59
2022/09/29 00:26:19;;;;;;;25.20;15.47;;;6.90;99.90;;;;;;5031786;28;20648;-58
2022/09/29 00:28:48;;;;;;;22.50;13.80;;;6.90;99.90;;;;;;5032224;28;20322;-58
2022/09/29 00:31:15;;;;;;;24.27;13.13;;;6.90;99.90;;;;;;5032075;28;20264;-58
2022/09/29 00:33:42;;;;;;;20.37;13.07;;;6.90;99.90;;;;;;5032172;28;20213;-59
2022/09/29 00:36:12;;;;;;;21.43;13.53;;;6.90;99.90;;;;;;5031915;28;20256;-59
2022/09/29 00:38:39;;;;;;;22.73;13.73;;;6.80;99.90;;;;;;5031891;28;20602;-59
2022/09/29 00:41:09;;;;;;;25.53;14.73;;;6.90;99.90;;;;;;5032242;28;20218;-59
2022/09/29 00:43:52;;;;;;;24.70;14.30;;;6.90;99.90;;;;;;5032063;28;20280;-59
2022/09/29 00:46:24;;;;;;;26.60;14.93;;;6.90;99.90;;;;;;5031433;28;20218;-59
2022/09/29 00:48:52;;;;;;;24.00;14.60;;;7.00;99.90;;;;;;5031901;28;20228;-58
2022/09/29 00:51:19;;;;;;;28.87;15.73;;;7.00;99.90;;;;;;5031666;28;20206;-58
2022/09/29 00:53:47;;;;;;;25.87;14.80;;;7.00;99.90;;;;;;5032026;28;20206;-59
2022/09/29 00:56:16;;;;;;;27.07;15.63;;;7.00;99.90;;;;;;5031578;28;20260;-58
2022/09/29 00:58:53;;;;;;;27.20;15.53;;;7.00;99.90;;;;;;5031798;28;20226;-59
2022/09/29 01:01:20;;;;;;;26.60;16.13;;;7.00;99.90;;;;;;5031701;28;20248;-58
2022/09/29 01:03:49;;;;;;;25.10;15.83;;;7.00;99.90;;;;;;5031791;28;20202;-58
2022/09/29 01:06:21;;;;;;;29.63;16.30;;;7.00;99.90;;;;;;5035281;28;20263;-58
2022/09/29 01:08:56;;;;;;;30.27;16.53;;;7.00;99.90;;;;;;5036106;28;20222;-57
2022/09/29 01:11:24;;;;;;;26.70;15.77;;;7.10;99.90;;;;;;5035855;28;20207;-58
2022/09/29 01:13:52;;;;;;;26.97;15.70;;;7.10;99.90;;;;;;5035779;28;20207;-58
2022/09/29 01:16:19;;;;;;;26.37;15.33;;;7.10;99.90;;;;;;5035141;28;20208;-58
2022/09/29 01:18:46;;;;;;;32.83;16.37;;;7.10;99.90;;;;;;5035872;28;20277;-58
2022/09/29 01:21:21;;;;;;;27.93;15.13;;;7.10;99.90;;;;;;5035765;28;20206;-58
2022/09/29 01:24:20;;;;;;;27.87;15.07;;;7.10;99.90;;;;;;5036632;28;20206;-58
2022/09/29 01:27:16;;;;;;;30.93;16.03;;;7.10;99.90;;;;;;5036529;28;20226;-59
2022/09/29 01:29:54;;;;;;;27.60;15.13;;;7.10;99.90;;;;;;5035717;28;20227;-58
2022/09/29 01:32:29;;;;;;;29.97;16.33;;;7.10;99.90;;;;;;5035929;28;20214;-57
2022/09/29 01:35:04;;;;;;;28.67;16.40;;;7.10;99.90;;;;;;5036211;28;20206;-58
2022/09/29 01:37:44;;;;;;;29.90;15.87;;;7.10;99.90;;;;;;5036080;28;20230;-59
2022/09/29 01:40:15;;;;;;;29.00;16.53;;;7.10;99.90;;;;;;5036022;28;20204;-59
2022/09/29 01:42:51;;;;;;;27.77;16.27;;;7.10;99.90;;;;;;5035831;28;20206;-59
2022/09/29 01:45:24;;;;;;;29.40;16.97;;;7.20;99.90;;;;;;5035532;28;20211;-59
2022/09/29 01:47:55;;;;;;;28.13;15.40;;;7.20;99.90;;;;;;5035209;28;20276;-57
2022/09/29 01:50:26;;;;;;;27.30;15.73;;;7.10;99.90;;;;;;5035256;28;20231;-58
2022/09/29 01:52:59;;;;;;;26.77;16.73;;;7.20;99.90;;;;;;5035140;28;20206;-58
2022/09/29 01:55:30;;;;;;;26.57;17.00;;;7.20;99.90;;;;;;5034989;28;20211;-57
2022/09/29 01:58:01;;;;;;;24.93;15.60;;;7.20;99.90;;;;;;5034533;28;20234;-57
2022/09/29 02:00:31;;;;;;;24.43;15.80;;;7.20;99.90;;;;;;5035021;28;20199;-58
2022/09/29 02:03:06;;;;;;;28.30;15.63;;;7.10;99.90;;;;;;5034689;28;20310;-58
2022/09/29 02:05:37;;;;;;;25.57;15.13;;;7.10;99.90;;;;;;5034669;28;20263;-58
2022/09/29 02:08:10;;;;;;;28.80;15.40;;;7.10;99.90;;;;;;5034311;28;20235;-57
2022/09/29 02:10:41;;;;;;;24.77;14.97;;;7.10;99.90;;;;;;5034275;28;20227;-57
2022/09/29 02:13:11;;;;;;;25.50;14.57;;;7.10;99.90;;;;;;5034680;28;20214;-58
2022/09/29 02:15:40;;;;;;;20.63;13.87;;;7.10;99.90;;;;;;5034871;28;20560;-59
2022/09/29 02:18:12;;;;;;;21.53;14.10;;;7.10;99.90;;;;;;5034188;28;20290;-59
2022/09/29 02:20:39;;;;;;;20.70;13.60;;;7.10;99.90;;;;;;5034545;28;20245;-59
2022/09/29 02:23:06;;;;;;;19.67;12.43;;;7.10;99.90;;;;;;5034177;28;20209;-58
2022/09/29 02:25:36;;;;;;;23.70;13.73;;;7.10;99.90;;;;;;5034527;28;20265;-58
2022/09/29 02:28:03;;;;;;;20.67;12.53;;;7.10;99.90;;;;;;5034099;28;20233;-58
2022/09/29 02:30:29;;;;;;;24.77;13.27;;;7.10;99.90;;;;;;5034367;28;20286;-57
2022/09/29 02:32:56;;;;;;;18.70;12.67;;;7.10;99.90;;;;;;5034222;28;20206;-58
2022/09/29 02:35:28;;;;;;;20.90;13.47;;;7.10;99.90;;;;;;5034217;28;20670;-58
2022/09/29 02:38:04;;;;;;;21.17;13.40;;;7.20;99.90;;;;;;5034048;28;20710;-58
2022/09/29 02:40:50;;;;;;;18.57;12.80;;;7.20;99.90;;;;;;5034263;28;20211;-59
2022/09/29 02:43:30;;;;;;;19.93;13.40;;;7.20;99.90;;;;;;5033968;28;20699;-59
2022/09/29 02:46:08;;;;;;;23.13;14.17;;;7.20;99.90;;;;;;5033747;28;20223;-59
2022/09/29 02:48:59;;;;;;;22.53;12.87;;;7.30;99.90;;;;;;5034019;28;20292;-58
2022/09/29 02:51:31;;;;;;;23.10;12.90;;;7.30;99.90;;;;;;5034070;28;20256;-58
2022/09/29 02:54:13;;;;;;;22.23;12.47;;;7.30;99.90;;;;;;5033908;28;20633;-59
2022/09/29 02:56:49;;;;;;;22.40;13.07;;;7.40;99.90;;;;;;5033757;28;20216;-57
2022/09/29 02:59:23;;;;;;;19.67;12.73;;;7.40;99.90;;;;;;5033874;28;20210;-58
2022/09/29 03:01:52;;;;;;;20.30;12.77;;;7.30;99.90;;;;;;5033330;28;20207;-56
2022/09/29 03:04:19;;;;;;;21.80;13.67;;;7.40;99.90;;;;;;5033690;28;20258;-58
2022/09/29 03:06:47;;;;;;;24.27;13.20;;;7.40;99.90;;;;;;5033048;28;20722;-58
2022/09/29 03:09:14;;;;;;;20.90;13.90;;;7.40;99.90;;;;;;5033731;28;20232;-55
2022/09/29 03:11:41;;;;;;;22.33;13.90;;;7.40;99.90;;;;;;5033524;28;20673;-55
2022/09/29 03:14:08;;;;;;;20.20;13.67;;;7.40;99.90;;;;;;5033336;28;20209;-53
2022/09/29 03:16:35;;;;;;;20.33;13.20;;;7.50;99.90;;;;;;5033287;28;20289;-58
2022/09/29 03:19:03;;;;;;;17.50;12.50;;;7.40;99.90;;;;;;5034255;28;20202;-58
2022/09/29 03:21:29;;;;;;;17.07;11.23;;;7.40;99.90;;;;;;5033607;28;20208;-58
2022/09/29 03:23:57;;;;;;;17.53;12.13;;;7.40;99.90;;;;;;5033394;28;20208;-58
2022/09/29 03:26:24;;;;;;;16.80;11.37;;;7.40;99.90;;;;;;5032974;28;20211;-56
2022/09/29 03:28:51;;;;;;;14.47;11.10;;;7.30;99.90;;;;;;5032574;28;20679;-58
2022/09/29 03:31:18;;;;;;;18.80;11.67;;;7.30;99.90;;;;;;5033054;28;20234;-58
2022/09/29 03:33:45;;;;;;;16.60;11.53;;;7.20;99.90;;;;;;5033066;28;20323;-58
2022/09/29 03:36:12;;;;;;;16.73;10.90;;;7.20;99.90;;;;;;5032978;28;20208;-57
2022/09/29 03:38:38;;;;;;;14.60;10.57;;;7.20;99.90;;;;;;5032482;28;20712;-58
2022/09/29 03:41:07;;;;;;;16.60;10.90;;;7.10;99.90;;;;;;5033094;28;20198;-58
2022/09/29 03:43:34;;;;;;;15.97;11.30;;;7.00;99.90;;;;;;5032612;28;20212;-58
2022/09/29 03:46:01;;;;;;;17.33;10.63;;;7.00;99.90;;;;;;5032474;28;20218;-57
2022/09/29 03:48:30;;;;;;;16.17;10.67;;;6.90;99.90;;;;;;5032332;28;20234;-58
2022/09/29 03:50:57;;;;;;;19.63;10.87;;;6.90;99.90;;;;;;5032650;28;20310;-56
2022/09/29 03:53:24;;;;;;;15.50;10.80;;;6.90;99.90;;;;;;5032588;28;20206;-58
2022/09/29 03:55:51;;;;;;;18.43;11.10;;;6.80;99.90;;;;;;5032566;28;20261;-59
2022/09/29 03:58:19;;;;;;;18.53;11.23;;;6.80;99.90;;;;;;5032633;28;20268;-59
2022/09/29 04:00:48;;;;;;;18.87;11.00;;;6.80;99.90;;;;;;5032267;28;20207;-58
2022/09/29 04:03:15;;;;;;;16.07;11.63;;;6.80;99.90;;;;;;5032507;28;20210;-56
2022/09/29 04:05:41;;;;;;;18.10;11.50;;;6.80;99.90;;;;;;5032544;28;20353;-59
2022/09/29 04:08:08;;;;;;;16.33;10.83;;;6.70;99.90;;;;;;5032367;28;20650;-57
2022/09/29 04:10:35;;;;;;;16.20;10.80;;;6.70;99.90;;;;;;5032363;28;20226;-58
2022/09/29 04:13:02;;;;;;;14.93;10.73;;;6.70;99.90;;;;;;5032567;28;20625;-58
2022/09/29 04:15:31;;;;;;;17.03;11.37;;;6.70;99.90;;;;;;5032445;28;20207;-56
2022/09/29 04:17:58;;;;;;;14.07;10.67;;;6.60;99.90;;;;;;5032601;28;20226;-55
2022/09/29 04:20:25;;;;;;;17.40;10.60;;;6.60;99.90;;;;;;5032497;28;20202;-55
2022/09/29 04:22:52;;;;;;;16.20;12.07;;;6.60;99.90;;;;;;5032330;28;20207;-60
2022/09/29 04:25:19;;;;;;;18.93;11.40;;;6.60;99.90;;;;;;5031871;28;20256;-58
2022/09/29 04:27:46;;;;;;;23.87;12.33;;;6.60;99.90;;;;;;5031921;28;20234;-55
2022/09/29 04:30:12;;;;;;;20.63;12.13;;;6.60;99.90;;;;;;5031764;28;20353;-58
2022/09/29 04:32:41;;;;;;;18.57;11.77;;;6.60;99.90;;;;;;5032381;28;20264;-58
2022/09/29 04:35:08;;;;;;;21.13;13.47;;;6.60;99.90;;;;;;5032082;28;20210;-58
2022/09/29 04:37:35;;;;;;;19.57;12.37;;;6.60;99.90;;;;;;5031606;28;20225;-60
2022/09/29 04:40:02;;;;;;;18.80;12.53;;;6.60;99.90;;;;;;5028237;28;20202;-58
2022/09/29 04:42:29;;;;;;;18.30;11.97;;;6.60;99.90;;;;;;5031427;28;20296;-58
2022/09/29 04:44:56;;;;;;;17.27;12.50;;;6.60;99.90;;;;;;5031383;28;20218;-58
2022/09/29 04:47:22;;;;;;;19.50;12.40;;;6.60;99.90;;;;;;5031626;28;20283;-58
2022/09/29 04:49:50;;;;;;;18.40;12.53;;;6.60;99.90;;;;;;5031358;28;20264;-58
2022/09/29 04:52:17;;;;;;;18.20;12.30;;;6.50;99.90;;;;;;5031351;28;20261;-58
2022/09/29 04:54:44;;;;;;;21.23;12.47;;;6.50;99.90;;;;;;5031077;28;20225;-59
2022/09/29 04:57:10;;;;;;;18.97;12.57;;;6.50;99.90;;;;;;5030964;28;20225;-58
2022/09/29 04:59:37;;;;;;;20.50;13.17;;;6.50;99.90;;;;;;5031731;28;20206;-58
2022/09/29 05:02:04;;;;;;;20.63;12.37;;;6.40;99.90;;;;;;5031469;28;20260;-58
2022/09/29 05:04:30;;;;;;;20.87;12.57;;;6.40;99.90;;;;;;5032012;28;20206;-58
2022/09/29 05:06:58;;;;;;;19.67;12.63;;;6.40;99.90;;;;;;5031045;28;20653;-58
2022/09/29 05:09:25;;;;;;;27.73;13.53;;;6.40;99.90;;;;;;5031407;28;20212;-58
2022/09/29 05:11:52;;;;;;;18.57;12.60;;;6.40;99.90;;;;;;5030990;28;20210;-58
2022/09/29 05:14:18;;;;;;;21.60;13.03;;;6.40;99.90;;;;;;5031574;28;20214;-58
2022/09/29 05:16:45;;;;;;;21.00;13.77;;;6.40;99.90;;;;;;5030812;28;20230;-58
2022/09/29 05:19:12;;;;;;;21.10;14.70;;;6.40;99.90;;;;;;5031348;28;20252;-58
2022/09/29 05:21:38;;;;;;;23.83;13.67;;;6.30;99.90;;;;;;5031043;28;20206;-59
2022/09/29 05:24:07;;;;;;;21.93;13.70;;;6.30;99.90;;;;;;5039617;28;20221;-62
2022/09/29 05:26:33;;;;;;;23.43;13.47;;;6.30;99.90;;;;;;5037928;28;20210;-61
2022/09/29 05:29:00;;;;;;;22.60;13.70;;;6.30;99.90;;;;;;5035964;28;20734;-64
2022/09/29 05:31:26;;;;;;;24.70;14.27;;;6.30;99.90;;;;;;5031357;28;20230;-63
2022/09/29 05:33:55;;;;;;;27.57;14.80;;;6.30;99.90;;;;;;5031044;28;20210;-63
2022/09/29 05:36:21;;;;;;;21.83;14.17;;;6.20;99.90;;;;;;5031343;28;20257;-64
2022/09/29 05:38:48;;;;;;;23.50;14.00;;;6.30;99.90;;;;;;5030710;28;20210;-63
2022/09/29 05:41:21;;;;;;;22.63;14.83;;;6.30;99.90;;;;;;5031645;28;20212;-65
2022/09/29 05:43:48;;;;;;;26.57;14.37;;;6.30;99.90;;;;;;5031047;28;20210;-65
2022/09/29 05:46:15;;;;;;;26.37;14.20;;;6.30;99.90;;;;;;5031226;28;20272;-63
2022/09/29 05:48:42;;;;;;;23.23;14.07;;;6.30;99.90;;;;;;5030761;28;20226;-66
2022/09/29 05:51:11;;;;;;;24.73;14.20;;;6.30;99.90;;;;;;5032580;28;20218;-63
2022/09/29 05:53:37;;;;;;;23.67;14.07;;;6.20;99.90;;;;;;5034164;28;20261;-63
2022/09/29 05:56:06;;;;;;;23.73;13.73;;;6.30;99.90;;;;;;5034731;28;20207;-62
2022/09/29 05:58:35;;;;;;;27.40;16.07;;;6.30;99.90;;;;;;5034671;28;20288;-62
2022/09/29 06:01:05;;;;;;;27.43;15.63;;;6.30;99.90;;;;;;5034260;28;20206;-62
2022/09/29 06:03:33;;;;;;;22.23;14.83;;;6.30;99.90;;;;;;5034693;28;20261;-62
2022/09/29 06:06:05;;;;;;;28.20;14.67;;;6.30;99.90;;;;;;5033540;28;20665;-63
2022/09/29 06:08:32;;;;;;;25.60;15.50;;;6.30;99.90;;;;;;5034740;28;20230;-61
2022/09/29 06:11:04;;;;;;;23.53;14.77;;;6.30;99.90;;;;;;5034077;28;20222;-62
2022/09/29 06:13:30;;;;;;;25.00;15.80;;;6.30;99.90;;;;;;5034518;28;20264;-62
2022/09/29 06:16:00;;;;;;;25.60;15.10;;;6.40;99.90;;;;;;5034079;28;20214;-62
2022/09/29 06:18:26;;;;;;;24.17;14.67;;;6.40;99.90;;;;;;5034203;28;20775;-61
2022/09/29 06:20:53;;;;;;;27.17;15.27;;;6.50;99.90;;;;;;5033989;28;20253;-61
2022/09/29 06:23:19;;;;;;;26.13;15.63;;;6.60;99.90;;;;;;5034147;28;20594;-62
2022/09/29 06:25:46;;;;;;;23.57;15.37;;;6.60;99.90;;;;;;5033685;28;20210;-58
2022/09/29 06:28:13;;;;;;;26.27;15.60;;;6.70;99.90;;;;;;5033970;28;20230;-63
2022/09/29 06:30:39;;;;;;;31.30;17.23;;;6.80;99.90;;;;;;5037119;28;20223;-60
2022/09/29 06:33:07;;;;;;;29.93;16.50;;;6.90;99.90;;;;;;5037014;28;20377;-60
2022/09/29 06:38:18;;;;;;;27.77;16.17;;;7.00;99.90;;;;;;5033418;28;20755;-62
2022/09/29 06:40:45;;;;;;;24.23;14.63;;;7.00;99.90;;;;;;5033823;28;20203;-60
2022/09/29 06:43:12;;;;;;;22.57;14.73;;;7.00;99.90;;;;;;5033171;28;20210;-59
2022/09/29 06:45:38;;;;;;;25.57;15.60;;;7.10;99.90;;;;;;5033435;28;20254;-62
2022/09/29 06:48:08;;;;;;;22.97;15.20;;;7.10;99.90;;;;;;5033296;28;20284;-64
2022/09/29 06:50:35;;;;;;;21.67;13.67;;;7.10;99.90;;;;;;5033768;28;20234;-61
2022/09/29 06:53:01;;;;;;;21.63;13.60;;;7.20;99.90;;;;;;5033380;28;20256;-62
2022/09/29 06:55:28;;;;;;;22.30;13.60;;;7.20;99.90;;;;;;5033584;28;20563;-63
2022/09/29 06:57:55;;;;;;;21.37;13.60;;;7.30;99.90;;;;;;5033111;28;20226;-59
2022/09/29 07:00:21;;;;;;;23.87;13.50;;;7.30;99.90;;;;;;5034096;28;20214;-58
2022/09/29 07:02:48;;;;;;;21.23;13.63;;;7.40;99.90;;;;;;5032836;28;20215;-60
2022/09/29 07:05:16;;;;;;;20.03;12.83;;;7.40;99.90;;;;;;5033257;28;20662;-58
2022/09/29 07:07:43;;;;;;;22.53;14.10;;;7.50;99.90;;;;;;5033289;28;20226;-59
2022/09/29 07:10:09;;;;;;;25.57;13.73;;;7.50;99.90;;;;;;5032731;28;20211;-59
2022/09/29 07:12:36;;;;;;;20.10;12.87;;;7.60;99.90;;;;;;5033261;28;20266;-58
2022/09/29 07:15:03;;;;;;;19.37;12.87;;;7.70;99.90;;;;;;5032895;28;20210;-56
2022/09/29 07:17:30;;;;;;;24.07;13.73;;;7.80;99.90;;;;;;5032873;28;20278;-60
2022/09/29 07:19:57;;;;;;;19.93;12.20;;;7.80;99.90;;;;;;5032859;28;20271;-61
2022/09/29 07:22:25;;;;;;;16.30;12.37;;;7.90;99.90;;;;;;5033026;28;20219;-63
2022/09/29 07:24:52;;;;;;;16.87;11.50;;;8.00;99.90;;;;;;5032435;28;20209;-62
2022/09/29 07:27:23;;;;;;;13.13;11.07;;;8.10;99.90;;;;;;5034050;28;20713;-62
2022/09/29 07:29:49;;;;;;;16.47;11.53;;;8.20;99.90;;;;;;5033850;28;20208;-58
2022/09/29 07:32:54;;;;;;;14.17;10.70;;;8.30;99.90;;;;;;5033076;28;20637;-60
2022/09/29 07:35:21;;;;;;;12.77;9.97;;;8.40;99.90;;;;;;5032951;28;20237;-59
2022/09/29 07:37:52;;;;;;;11.07;9.03;;;8.50;99.90;;;;;;5032884;28;20639;-56
2022/09/29 07:40:19;;;;;;;13.23;9.60;;;8.50;99.90;;;;;;5033013;28;20287;-61
2022/09/29 07:42:46;;;;;;;13.13;9.40;;;8.60;99.90;;;;;;5032566;28;20340;-57
2022/09/29 07:45:13;;;;;;;11.77;9.23;;;8.70;99.90;;;;;;5033018;28;20218;-58
2022/09/29 07:47:39;;;;;;;13.67;10.43;;;8.80;99.90;;;;;;5031936;28;20230;-60
2022/09/29 07:50:06;;;;;;;12.30;9.73;;;8.80;99.90;;;;;;5032533;28;20328;-61
2022/09/29 07:52:33;;;;;;;13.13;9.40;;;8.90;99.90;;;;;;5031988;28;20213;-59
2022/09/29 07:55:01;;;;;;;12.93;8.53;;;9.00;99.90;;;;;;5032638;28;20628;-60
2022/09/29 07:57:28;;;;;;;12.07;8.73;;;9.10;99.90;;;;;;5031616;28;20234;-60
2022/09/29 07:59:56;;;;;;;13.73;8.43;;;9.30;99.90;;;;;;5032222;28;20214;-61
2022/09/29 08:02:23;;;;;;;11.30;7.80;;;9.40;99.90;;;;;;5031744;28;20233;-61
2022/09/29 08:04:50;;;;;;;11.70;8.70;;;9.40;99.90;;;;;;5032294;28;20280;-60
2022/09/29 08:07:16;;;;;;;10.63;8.63;;;9.60;99.90;;;;;;5031745;28;20230;-57
2022/09/29 08:09:43;;;;;;;10.57;8.27;;;9.60;99.90;;;;;;5031935;28;20244;-56
2022/09/29 08:12:12;;;;;;;10.73;8.33;;;9.80;99.90;;;;;;5032011;28;20622;-54
2022/09/29 08:14:39;;;;;;;12.17;7.80;;;9.80;99.90;;;;;;5031532;28;20344;-53
2022/09/29 08:17:05;;;;;;;9.93;7.83;;;9.90;99.90;;;;;;5027528;28;20245;-60
2022/09/29 08:19:32;;;;;;;11.43;7.20;;;10.00;99.90;;;;;;5022675;28;20941;-60
2022/09/29 08:21:59;;;;;;;9.30;7.33;;;10.10;99.90;;;;;;5031359;28;20218;-60
2022/09/29 08:24:26;;;;;;;10.73;7.23;;;10.20;99.90;;;;;;5030753;28;20577;-61
2022/09/29 08:26:53;;;;;;;13.40;7.80;;;10.30;99.90;;;;;;5031197;28;20266;-57
2022/09/29 08:29:21;;;;;;;12.33;7.73;;;10.40;99.90;;;;;;5030729;28;20206;-62
2022/09/29 08:31:48;;;;;;;10.17;7.27;;;10.50;99.90;;;;;;5030814;28;20279;-59
2022/09/29 08:34:15;;;;;;;10.17;7.13;;;10.60;99.90;;;;;;5031655;28;20211;-59
2022/09/29 08:36:42;;;;;;;7.57;6.57;;;10.70;99.90;;;;;;5030868;28;20208;-61
2022/09/29 08:39:10;;;;;;;9.43;6.97;;;10.80;99.90;;;;;;5031180;28;20214;-60
2022/09/29 08:41:53;;;;;;;9.27;6.70;;;10.90;96.90;;;;;;5031003;28;20206;-59
2022/09/29 08:44:28;;;;;;;10.57;6.77;;;11.00;91.80;;;;;;5030825;28;20206;-59
2022/09/29 08:47:00;;;;;;;8.93;6.43;;;11.00;88.20;;;;;;5030555;28;20287;-60
2022/09/29 08:49:32;;;;;;;8.13;6.57;;;11.10;90.20;;;;;;5030997;28;20906;-62
2022/09/29 08:52:07;;;;;;;8.13;5.90;;;11.20;85.90;;;;;;5030787;28;20225;-56
2022/09/29 08:54:37;;;;;;;7.77;6.07;;;11.30;78.90;;;;;;5031062;28;20204;-59
2022/09/29 08:57:05;;;;;;;6.00;5.10;;;11.40;67.60;;;;;;5030023;28;20230;-58
2022/09/29 08:59:33;;;;;;;7.30;5.43;;;11.40;57.50;;;;;;5030388;28;20198;-56
2022/09/29 09:02:20;;;;;;;11.03;5.00;;;11.50;55.60;;;;;;5031122;28;20210;-62
2022/09/29 09:05:12;;;;;;;7.10;5.37;;;11.50;33.80;;;;;;5030697;28;20266;-58
2022/09/29 09:07:46;;;;;;;6.23;5.40;;;11.60;53.60;;;;;;5030843;28;20230;-59
2022/09/29 09:10:30;;;;;;;9.57;6.00;;;11.60;50.40;;;;;;5030506;28;20239;-59
2022/09/29 09:13:10;;;;;;;10.57;5.50;;;11.70;60.40;;;;;;5030956;28;20582;-59
2022/09/29 09:15:53;;;;;;;6.07;4.77;;;11.70;47.80;;;;;;5030402;28;20210;-62
2022/09/29 09:18:36;;;;;;;6.77;5.23;;;11.70;31.00;;;;;;5030626;28;20234;-61
2022/09/29 09:21:07;;;;;;;7.60;5.73;;;11.80;49.50;;;;;;5030350;28;20206;-60
2022/09/29 09:23:46;;;;;;;6.00;4.70;;;11.90;33.40;;;;;;5030825;28;20206;-59
2022/09/29 09:26:13;;;;;;;5.27;4.17;;;11.90;17.70;;;;;;5032084;28;20217;-61
2022/09/29 09:28:44;;;;;;;6.70;4.10;;;12.00;8.60;;;;;;5034876;28;20226;-61
2022/09/29 09:31:19;;;;;;;5.33;4.83;;;12.00;1.00;;;;;;5034427;28;20230;-60
2022/09/29 09:33:52;;;;;;;7.67;5.00;;;12.10;6.10;;;;;;5034674;28;20210;-61
2022/09/29 09:36:23;;;;;;;10.70;5.03;;;12.10;1.00;;;;;;5033745;28;20218;-61
2022/09/29 09:38:59;;;;;;;6.57;5.30;;;12.20;1.00;;;;;;5033627;28;20207;-58
2022/09/29 09:41:28;;;;;;;6.33;4.83;;;12.20;1.00;;;;;;5034535;28;20271;-59
2022/09/29 09:43:58;;;;;;;6.33;4.67;;;12.30;1.00;;;;;;5034492;28;20206;-58
2022/09/29 09:46:32;;;;;;;5.60;4.30;;;12.10;1.00;;;;;;5035047;28;20233;-57
2022/09/29 09:49:05;;;;;;;5.33;4.50;;;12.00;1.00;;;;;;5035937;28;20279;-59
2022/09/29 09:51:46;;;;;;;6.33;5.47;;;11.90;1.00;;;;;;5038132;28;20261;-59
2022/09/29 09:54:21;;;;;;;9.90;4.97;;;11.80;8.10;;;;;;5035860;28;20259;-61
2022/09/29 09:57:00;;;;;;;5.70;4.57;;;11.90;27.00;;;;;;5033971;28;20294;-59
2022/09/29 09:59:36;;;;;;;5.30;4.40;;;11.80;2.00;;;;;;5033402;28;20595;-59
2022/09/29 10:02:04;;;;;;;6.67;4.30;;;11.80;1.00;;;;;;5034203;28;20205;-61
2022/09/29 10:04:32;;;;;;;5.40;4.30;;;11.80;1.00;;;;;;5033699;28;20217;-60
2022/09/29 10:06:59;;;;;;;5.10;3.67;;;11.90;5.30;;;;;;5034238;28;20230;-57
2022/09/29 10:09:26;;;;;;;5.57;3.77;;;11.90;1.00;;;;;;5033295;28;20213;-58
2022/09/29 10:11:52;;;;;;;3.93;3.27;;;11.90;1.00;;;;;;5033437;28;20268;-61
2022/09/29 10:14:24;;;;;;;6.37;3.73;;;11.90;1.00;;;;;;5034132;28;20210;-61
2022/09/29 10:16:57;;;;;;;5.67;2.70;;;12.00;1.00;;;;;;5033407;28;20309;-61
2022/09/29 10:19:56;;;;;;;2.33;2.13;;;12.20;1.00;;;;;;5033706;28;20673;-62
2022/09/29 10:22:23;;;;;;;4.30;2.33;;;12.30;1.00;;;;;;5033405;28;20209;-55
2022/09/29 10:24:55;;;;;;;3.30;2.30;;;12.30;1.00;;;;;;5033904;28;20206;-55
2022/09/29 10:27:25;;;;;;;4.53;2.10;;;12.30;1.00;;;;;;5033431;28;20230;-56
2022/09/29 10:29:53;;;;;;;2.30;1.67;;;12.40;1.00;;;;;;5033728;28;20792;-56
2022/09/29 10:32:35;;;;;;;3.13;1.83;;;12.60;1.00;;;;;;5033168;28;20245;-57
2022/09/29 10:35:08;;;;;;;3.53;2.30;;;12.70;99.90;;;;;;5033966;28;20202;-60
2022/09/29 10:37:38;;;;;;;4.33;3.30;;;12.70;99.90;;;;;;5031587;28;20758;-58
2022/09/29 10:40:16;;;;;;;5.00;3.10;;;12.50;1.00;;;;;;5033472;28;20676;-59
2022/09/29 10:42:45;;;;;;;5.50;3.70;;;12.40;99.90;;;;;;5033004;28;20210;-59
2022/09/29 10:45:14;;;;;;;4.43;3.53;;;12.50;99.90;;;;;;5032500;28;20562;-59
2022/09/29 10:47:42;;;;;;;3.70;2.90;;;12.50;99.90;;;;;;5032933;28;20716;-59
2022/09/29 10:50:17;;;;;;;4.80;2.87;;;12.50;99.90;;;;;;5032793;28;20202;-63
2022/09/29 10:52:45;;;;;;;5.13;2.53;;;12.50;99.90;;;;;;5033111;28;20238;-61
2022/09/29 10:55:20;;;;;;;3.80;2.17;;;12.70;1.00;;;;;;5032705;28;20260;-61
2022/09/29 10:57:47;;;;;;;3.93;1.87;;;12.90;99.90;;;;;;5032551;28;20237;-60
2022/09/29 11:00:31;;;;;;;3.10;2.07;;;12.90;1.00;;;;;;5032713;28;20205;-61
2022/09/29 11:03:05;;;;;;;4.30;2.70;;;12.90;99.90;;;;;;5033629;28;20205;-61
2022/09/29 11:05:35;;;;;;;5.10;2.67;;;13.10;99.90;;;;;;5032771;28;20206;-62
2022/09/29 11:08:02;;;;;;;5.00;2.70;;;13.30;1.00;;;;;;5032619;28;20650;-62
2022/09/29 11:10:32;;;;;;;2.83;2.47;;;13.50;99.90;;;;;;5032762;28;20221;-64
2022/09/29 11:13:29;;;;;;;6.67;2.97;;;13.40;63.80;;;;;;5032530;28;20230;-58
2022/09/29 11:16:04;;;;;;;3.47;2.40;;;13.40;1.00;;;;;;5032530;28;20210;-59
2022/09/29 11:18:36;;;;;;;3.57;2.23;;;13.40;1.00;;;;;;5032219;28;20329;-59
2022/09/29 11:21:35;;;;;;;4.10;1.87;;;13.40;1.00;;;;;;5033053;28;20206;-60
2022/09/29 11:24:07;;;;;;;2.00;1.80;;;13.50;1.00;;;;;;5032720;28;20206;-58
2022/09/29 11:26:40;;;;;;;4.27;1.70;;;13.70;1.00;;;;;;5032705;28;20628;-58
2022/09/29 11:29:21;;;;;;;3.60;1.53;;;13.90;1.00;;;;;;5033025;28;20203;-60
2022/09/29 11:32:07;;;;;;;2.43;1.33;;;13.80;1.00;;;;;;5034560;28;20230;-59
2022/09/29 11:34:53;;;;;;;1.87;1.30;;;14.00;1.00;;;;;;5032497;28;20715;-60
2022/09/29 11:37:36;;;;;;;2.23;0.93;;;14.00;99.90;;;;;;5032011;28;20256;-56
2022/09/29 11:40:11;;;;;;;2.13;0.90;;;13.90;99.90;;;;;;5031994;28;20627;-58
2022/09/29 11:42:55;;;;;;;3.37;1.00;;;13.70;99.90;;;;;;5032629;28;20264;-56
2022/09/29 11:45:29;;;;;;;3.90;1.33;;;13.60;99.90;;;;;;5031538;28;20210;-59
2022/09/29 11:48:24;;;;;;;2.47;1.20;;;13.60;99.90;;;;;;5031802;28;20238;-58
2022/09/29 11:50:59;;;;;;;1.43;1.20;;;13.60;99.90;;;;;;5012362;28;20203;-60
2022/09/29 11:53:42;;;;;;;2.73;1.10;;;13.60;99.90;;;;;;5012352;28;20234;-58
2022/09/29 11:56:18;;;;;;;2.10;1.20;;;13.80;99.90;;;;;;5011545;28;20207;-59
2022/09/29 11:59:02;;;;;;;1.20;1.00;;;14.10;99.90;;;;;;5012058;28;20227;-59
2022/09/29 12:01:46;;;;;;;2.03;1.20;;;14.40;99.90;;;;;;5011575;28;20217;-60
2022/09/29 12:04:22;;;;;;;3.00;1.50;;;14.50;99.90;;;;;;5011961;28;20292;-59
2022/09/29 12:06:54;;;;;;;1.63;1.20;;;14.30;99.90;;;;;;5011441;28;20222;-61
2022/09/29 12:09:46;;;;;;;4.53;1.67;;;14.40;99.90;;;;;;5020684;28;20627;-63
2022/09/29 12:12:19;;;;;;;5.97;1.47;;;14.50;99.90;;;;;;5022528;28;20280;-60
2022/09/29 12:15:03;;;;;;;2.70;1.33;;;14.70;99.90;;;;;;5032230;28;20210;-61
2022/09/29 12:17:35;;;;;;;3.90;1.53;;;14.90;99.90;;;;;;5031908;28;20233;-62
2022/09/29 12:20:06;;;;;;;4.70;1.80;;;14.90;99.90;;;;;;5032898;28;20257;-60
2022/09/29 12:22:32;;;;;;;4.33;2.10;;;14.50;99.90;;;;;;5032466;28;20203;-59
2022/09/29 12:25:01;;;;;;;3.20;2.00;;;14.40;99.90;;;;;;5031397;28;20280;-61
2022/09/29 12:27:34;;;;;;;4.83;1.60;;;14.40;99.90;;;;;;5030906;28;20234;-61
2022/09/29 12:30:06;;;;;;;5.13;1.43;;;14.40;99.90;;;;;;5031150;28;20218;-60
2022/09/29 12:32:35;;;;;;;1.43;1.30;;;14.20;99.90;;;;;;5031411;28;20222;-60
2022/09/29 12:35:09;;;;;;;3.97;1.30;;;14.20;99.90;;;;;;5030915;28;20234;-61
2022/09/29 12:37:41;;;;;;;2.83;1.50;;;14.30;99.90;;;;;;5030593;28;20227;-58
2022/09/29 12:40:19;;;;;;;1.60;1.03;;;14.50;99.90;;;;;;5030898;28;20210;-61
2022/09/29 12:43:01;;;;;;;1.03;0.93;;;14.70;99.90;;;;;;5011570;28;20732;-61
2022/09/29 12:45:34;;;;;;;1.90;1.03;;;14.80;99.90;;;;;;5028544;28;20636;-58
2022/09/29 12:48:11;;;;;;;2.30;1.13;;;14.90;99.90;;;;;;5030524;28;20288;-63
2022/09/29 12:50:42;;;;;;;3.27;1.07;;;15.00;99.90;;;;;;5031087;28;20354;-62
2022/09/29 12:53:16;;;;;;;1.73;1.20;;;15.10;99.90;;;;;;5031069;28;20229;-62
2022/09/29 12:55:50;;;;;;;5.20;1.50;;;15.00;99.90;;;;;;5030815;28;20208;-62
2022/09/29 12:58:24;;;;;;;5.60;1.30;;;14.70;99.90;;;;;;5029977;28;20230;-60
2022/09/29 13:00:58;;;;;;;2.30;1.50;;;14.70;99.90;;;;;;5030573;28;20692;-60
2022/09/29 13:03:47;;;;;;;2.50;1.20;;;14.60;99.90;;;;;;5030712;28;20202;-61
2022/09/29 13:06:41;;;;;;;1.40;1.03;;;14.40;99.90;;;;;;5030947;28;20210;-58